Time;durP1;ratioP1;P1;durP2;ratioP2;P2;SDS_P1;SDS_P2;PMS_P1;PMS_P2;Temp;Humidity;BMP_temperature;BMP_pressure;BME280_temperature;BME280_humidity;BME280_pressure;Samples;Min_cycle;Max_cycle;Signal;HPM_P1;HPM_P2
2022/03/28 00:00:45;;;;;;;;;;;;;;;9.70;64.59;102190.63;5021097;28;19983;-80
2022/03/28 00:03:11;;;;;;;;;;;;;;;9.65;64.28;102188.00;5028083;28;20019;-80
2022/03/28 00:05:36;;;;;;;;;;;;;;;9.58;64.84;102185.34;5028623;28;19929;-80
2022/03/28 00:08:02;;;;;;;;;;;;;;;9.56;64.93;102192.28;5008497;28;19932;-80
2022/03/28 00:10:27;;;;;;;;;;;;;;;9.51;65.14;102186.19;5011652;28;19932;-80
2022/03/28 00:12:53;;;;;;;;;;;;;;;9.62;64.83;102188.00;5039215;28;20016;-80
2022/03/28 00:15:18;;;;;;;;;;;;;;;9.67;64.41;102177.63;5031701;28;19975;-80
2022/03/28 00:17:44;;;;;;;;;;;;;;;9.76;64.29;102182.88;5007864;28;19979;-75
2022/03/28 00:20:11;;;;;;;;;;;;;;;9.66;63.86;102179.34;5017362;28;20012;-75
2022/03/28 00:22:40;;;;;;;;;;;;;;;9.51;64.13;102168.91;5016320;28;19926;-76
2022/03/28 00:25:06;;;;;;;;;;;;;;;9.50;64.13;102171.47;5023253;28;20027;-80
2022/03/28 00:27:31;;;;;;;;;;;;;;;9.69;63.71;102165.56;5022972;28;19932;-80
2022/03/28 00:29:57;;;;;;;;;;;;;;;9.58;64.24;102162.88;5028580;28;19925;-80
2022/03/28 00:32:22;;;;;;;;;;;;;;;9.61;64.35;102167.22;5011011;28;19925;-80
2022/03/28 00:34:47;;;;;;;;;;;;;;;9.64;64.33;102165.50;5030827;28;19921;-80
2022/03/28 00:37:13;;;;;;;;;;;;;;;9.54;65.11;102168.06;5025346;28;19921;-80
2022/03/28 00:39:38;;;;;;;;;;;;;;;9.36;65.50;102161.03;5026411;28;20020;-80
2022/03/28 00:42:03;;;;;;;;;;;;;;;9.37;65.00;102154.97;5027472;28;19928;-75
2022/03/28 00:44:29;;;;;;;;;;;;;;;9.47;63.90;102153.31;5022090;28;19963;-76
2022/03/28 00:46:55;;;;;;;;;;;;;;;9.44;64.13;102146.38;5023292;28;20310;-76
2022/03/28 00:49:20;;;;;;;;;;;;;;;9.55;64.11;102144.72;5017740;28;20065;-76
2022/03/28 00:51:45;;;;;;;;;;;;;;;9.50;64.22;102146.41;5023044;28;19929;-80
2022/03/28 00:54:12;;;;;;;;;;;;;;;9.46;64.34;102146.38;5023906;28;19991;-80
2022/03/28 00:56:38;;;;;;;;;;;;;;;9.49;64.52;102147.25;5023086;28;19918;-75
2022/03/28 00:59:04;;;;;;;;;;;;;;;9.38;65.04;102146.34;5015000;28;19921;-75
2022/03/28 01:01:30;;;;;;;;;;;;;;;9.44;64.90;102143.78;5023668;28;19921;-75
2022/03/28 01:03:55;;;;;;;;;;;;;;;9.47;65.20;102140.34;5027710;28;19917;-80
2022/03/28 01:06:20;;;;;;;;;;;;;;;9.60;64.56;102136.97;5025488;28;19929;-80
2022/03/28 01:08:46;;;;;;;;;;;;;;;9.56;64.78;102128.28;5025611;28;19955;-80
2022/03/28 01:11:12;;;;;;;;;;;;;;;9.38;65.29;102130.78;5026837;28;20040;-80
2022/03/28 01:13:38;;;;;;;;;;;;;;;9.41;64.67;102125.63;5027319;28;20324;-77
2022/03/28 01:16:04;;;;;;;;;;;;;;;9.43;64.41;102116.09;5026944;28;19917;-77
2022/03/28 01:18:30;;;;;;;;;;;;;;;9.42;64.73;102111.81;5020677;28;20677;-77
2022/03/28 01:20:56;;;;;;;;;;;;;;;9.30;65.20;102115.19;5028769;28;19960;-80
2022/03/28 01:23:22;;;;;;;;;;;;;;;9.25;64.78;102119.47;5023759;28;20410;-80
2022/03/28 01:25:51;;;;;;;;;;;;;;;9.26;65.07;102118.63;5026392;28;19936;-80
2022/03/28 01:28:17;;;;;;;;;;;;;;;9.34;64.60;102113.47;5026632;28;19921;-80
2022/03/28 01:30:42;;;;;;;;;;;;;;;9.38;64.15;102115.22;5032733;28;19921;-80
2022/03/28 01:33:07;;;;;;;;;;;;;;;9.45;63.55;102104.03;5026819;28;19925;-80
2022/03/28 01:35:38;;;;;;;;;;;;;;;9.32;63.89;102107.41;5018793;28;19922;-77
2022/03/28 01:38:08;;;;;;;;;;;;;;;9.23;63.96;102102.19;5016987;28;19913;-77
2022/03/28 01:40:34;;;;;;;;;;;;;;;9.21;64.11;102099.59;5011776;28;19929;-77
2022/03/28 01:42:59;;;;;;;;;;;;;;;9.30;64.09;102101.38;5021139;28;20030;-76
2022/03/28 01:45:25;;;;;;;;;;;;;;;9.17;65.17;102100.41;5027393;28;19953;-80
2022/03/28 01:47:50;;;;;;;;;;;;;;;9.34;64.44;102087.53;5024867;28;19921;-80
2022/03/28 01:50:16;;;;;;;;;;;;;;;9.01;65.38;102095.97;5022907;28;20344;-80
2022/03/28 01:52:42;;;;;;;;;;;;;;;9.22;64.95;102093.53;5010160;28;19921;-80
2022/03/28 01:55:09;;;;;;;;;;;;;;;9.17;64.42;102084.00;5012221;28;20410;-80
2022/03/28 01:57:35;;;;;;;;;;;;;;;9.14;64.80;102087.44;5031550;28;20306;-80
2022/03/28 02:00:00;;;;;;;;;;;;;;;9.32;64.36;102081.47;5029711;28;19921;-80
2022/03/28 02:02:25;;;;;;;;;;;;;;;9.23;64.15;102082.31;5030203;28;19921;-80
2022/03/28 02:04:51;;;;;;;;;;;;;;;9.01;64.71;102088.22;5030059;28;20008;-80
2022/03/28 02:07:17;;;;;;;;;;;;;;;9.16;64.57;102082.25;5012483;28;20043;-80
2022/03/28 02:09:43;;;;;;;;;;;;;;;9.09;64.89;102078.78;5024556;28;20500;-80
2022/03/28 02:12:08;;;;;;;;;;;;;;;9.16;65.07;102079.66;5038026;28;19967;-80
2022/03/28 02:14:34;;;;;;;;;;;;;;;9.13;64.65;102080.50;5033538;28;19924;-75
2022/03/28 02:16:59;;;;;;;;;;;;;;;9.06;65.06;102083.06;5033084;28;19921;-76
2022/03/28 02:19:24;;;;;;;;;;;;;;;9.02;64.86;102077.00;5025100;28;20079;-77
2022/03/28 02:21:50;;;;;;;;;;;;;;;9.22;63.98;102083.16;5012835;28;20420;-80
2022/03/28 02:24:15;;;;;;;;;;;;;;;9.11;64.05;102077.06;5011479;28;19936;-79
2022/03/28 02:26:40;;;;;;;;;;;;;;;9.06;64.15;102072.69;5025613;28;19921;-77
2022/03/28 02:29:06;;;;;;;;;;;;;;;8.96;64.64;102068.31;5013460;28;19917;-77
2022/03/28 02:31:31;;;;;;;;;;;;;;;9.05;64.09;102069.25;5025268;28;19921;-80
2022/03/28 02:33:56;;;;;;;;;;;;;;;9.15;63.65;102058.06;5024377;28;19933;-80
2022/03/28 02:36:22;;;;;;;;;;;;;;;9.07;64.00;102061.44;5028424;28;19929;-80
2022/03/28 02:38:47;;;;;;;;;;;;;;;8.87;65.01;102058.75;5033208;28;20645;-75
2022/03/28 02:41:13;;;;;;;;;;;;;;;9.08;64.66;102043.34;5030105;28;19924;-75
2022/03/28 02:43:38;;;;;;;;;;;;;;;8.85;65.05;102050.13;5024550;28;19921;-75
2022/03/28 02:46:03;;;;;;;;;;;;;;;8.95;64.84;102048.44;5006585;28;20537;-75
2022/03/28 02:48:29;;;;;;;;;;;;;;;8.99;64.36;102035.50;5026907;28;20043;-76
2022/03/28 02:50:54;;;;;;;;;;;;;;;9.12;63.74;102037.31;5022081;28;20382;-80
2022/03/28 02:53:19;;;;;;;;;;;;;;;8.98;64.23;102022.56;5029338;28;20071;-75
2022/03/28 02:55:44;;;;;;;;;;;;;;;8.94;64.20;102029.44;5028073;28;19927;-80
2022/03/28 02:58:10;;;;;;;;;;;;;;;8.77;65.00;102033.66;5020069;28;19925;-77
2022/03/28 03:00:35;;;;;;;;;;;;;;;8.66;65.23;102030.09;4997242;28;19932;-77
2022/03/28 03:03:00;;;;;;;;;;;;;;;8.74;64.83;102026.72;5027090;28;19953;-75
2022/03/28 03:05:26;;;;;;;;;;;;;;;8.92;63.79;102019.94;5020713;28;20411;-75
2022/03/28 03:07:52;;;;;;;;;;;;;;;8.98;63.17;102020.81;5030377;28;19921;-75
2022/03/28 03:10:17;;;;;;;;;;;;;;;8.97;63.36;102021.69;5011258;28;19925;-75
2022/03/28 03:12:42;;;;;;;;;;;;;;;8.66;64.36;102023.22;5021801;28;20290;-75
2022/03/28 03:15:08;;;;;;;;;;;;;;;8.76;64.47;102021.56;5039556;28;20365;-75
2022/03/28 03:17:33;;;;;;;;;;;;;;;8.95;63.64;102013.00;5028124;28;19964;-79
2022/03/28 03:19:59;;;;;;;;;;;;;;;8.76;64.08;102011.19;5032098;28;19956;-79
2022/03/28 03:22:24;;;;;;;;;;;;;;;8.74;64.38;102010.31;5026181;28;20379;-80
2022/03/28 03:24:50;;;;;;;;;;;;;;;8.53;64.83;102013.63;5022330;28;20390;-79
2022/03/28 03:27:15;;;;;;;;;;;;;;;8.81;63.62;102009.47;5028364;28;19991;-77
2022/03/28 03:29:41;;;;;;;;;;;;;;;8.76;64.04;102013.78;5029031;28;19949;-77
2022/03/28 03:32:06;;;;;;;;;;;;;;;8.92;63.32;102009.56;5027069;28;19913;-80
2022/03/28 03:34:33;;;;;;;;;;;;;;;8.85;64.05;102008.66;5030600;28;19931;-78
2022/03/28 03:36:58;;;;;;;;;;;;;;;8.75;64.33;102020.69;5027288;28;19979;-77
2022/03/28 03:39:25;;;;;;;;;;;;;;;8.74;64.11;102011.16;5030625;28;19925;-75
2022/03/28 03:41:51;;;;;;;;;;;;;;;8.83;63.71;102002.56;5009205;28;19971;-75
2022/03/28 03:44:16;;;;;;;;;;;;;;;8.91;63.70;102000.03;5027574;28;20008;-80
2022/03/28 03:46:41;;;;;;;;;;;;;;;8.99;63.34;101987.97;5027289;28;20015;-80
2022/03/28 03:49:08;;;;;;;;;;;;;;;8.90;63.68;101990.53;5010121;28;19975;-80
2022/03/28 03:51:34;;;;;;;;;;;;;;;8.91;64.01;101987.97;5026166;28;19929;-80
2022/03/28 03:53:59;;;;;;;;;;;;;;;9.01;64.03;101983.69;5023263;28;19925;-79
2022/03/28 03:56:28;;;;;;;;;;;;;;;8.87;63.79;101981.00;5028331;28;20575;-75
2022/03/28 03:58:53;;;;;;;;;;;;;;;8.93;62.82;101980.19;5011698;28;19929;-76
2022/03/28 04:01:18;;;;;;;;;;;;;;;8.80;63.06;101980.09;5007590;28;20679;-76
2022/03/28 04:03:44;;;;;;;;;;;;;;;8.72;63.73;101975.75;5024767;28;19968;-77
2022/03/28 04:06:10;;;;;;;;;;;;;;;8.68;63.26;101974.03;5029554;28;19925;-77
2022/03/28 04:08:36;;;;;;;;;;;;;;;8.63;63.34;101968.78;4994009;28;19921;-77
2022/03/28 04:11:01;;;;;;;;;;;;;;;8.52;63.61;101974.75;5024692;28;19943;-80
2022/03/28 04:13:26;;;;;;;;;;;;;;;8.64;63.30;101970.53;5021578;28;20413;-79
2022/03/28 04:15:52;;;;;;;;;;;;;;;8.59;63.63;101966.19;5028391;28;19982;-79
2022/03/28 04:18:17;;;;;;;;;;;;;;;8.59;64.01;101961.00;5023228;28;20383;-77
2022/03/28 04:20:42;;;;;;;;;;;;;;;8.72;64.10;101963.66;5019922;28;20525;-80
2022/03/28 04:23:08;;;;;;;;;;;;;;;8.76;63.74;101960.25;5027484;28;19920;-81
2022/03/28 04:25:33;;;;;;;;;;;;;;;8.63;64.31;101953.25;5005358;28;19929;-75
2022/03/28 04:27:58;;;;;;;;;;;;;;;8.71;63.75;101951.56;5024494;28;20287;-75
2022/03/28 04:30:24;;;;;;;;;;;;;;;8.71;63.70;101955.91;5022870;28;19929;-75
2022/03/28 04:32:50;;;;;;;;;;;;;;;8.64;63.89;101952.41;5023951;28;19937;-75
2022/03/28 04:35:15;;;;;;;;;;;;;;;8.71;64.18;101955.91;5026128;28;19962;-80
2022/03/28 04:37:41;;;;;;;;;;;;;;;8.51;65.01;101952.31;5025674;28;19925;-80
2022/03/28 04:40:08;;;;;;;;;;;;;;;8.65;64.41;101959.28;5019809;28;19921;-80
2022/03/28 04:42:33;;;;;;;;;;;;;;;8.73;63.99;101960.22;5026761;28;19955;-80
2022/03/28 04:44:59;;;;;;;;;;;;;;;8.56;64.05;101956.66;5024713;28;19925;-77
2022/03/28 04:47:24;;;;;;;;;;;;;;;8.46;64.59;101961.78;5026047;28;20021;-77
2022/03/28 04:49:49;;;;;;;;;;;;;;;8.41;64.48;101953.13;5024596;28;19928;-77
2022/03/28 04:52:15;;;;;;;;;;;;;;;8.29;65.03;101953.00;5021869;28;19940;-75
2022/03/28 04:54:40;;;;;;;;;;;;;;;8.29;64.73;101950.41;5028380;28;19929;-75
2022/03/28 04:57:05;;;;;;;;;;;;;;;8.41;64.88;101953.13;5025378;28;19922;-81
2022/03/28 04:59:31;;;;;;;;;;;;;;;8.40;64.61;101949.66;5026939;28;19921;-78
2022/03/28 05:01:57;;;;;;;;;;;;;;;8.45;63.89;101940.19;5010682;28;19928;-79
2022/03/28 05:04:22;;;;;;;;;;;;;;;8.48;64.08;101960.91;5023171;28;19983;-77
2022/03/28 05:06:47;;;;;;;;;;;;;;;8.50;64.54;101953.19;5006532;28;20413;-76
2022/03/28 05:09:12;;;;;;;;;;;;;;;8.42;64.77;101954.81;5024281;28;19921;-81
2022/03/28 05:11:38;;;;;;;;;;;;;;;8.25;65.06;101952.09;5022555;28;19928;-80
2022/03/28 05:14:03;;;;;;;;;;;;;;;8.32;65.30;101959.06;5024629;28;19967;-75
2022/03/28 05:16:32;;;;;;;;;;;;;;;8.19;65.29;101954.63;5024381;28;19921;-76
2022/03/28 05:18:57;;;;;;;;;;;;;;;8.34;64.67;101959.09;5035679;28;19936;-77
2022/03/28 05:21:22;;;;;;;;;;;;;;;8.38;64.41;101969.50;5003814;28;19929;-76
2022/03/28 05:23:47;;;;;;;;;;;;;;;8.25;65.15;101962.47;4996577;28;20015;-82
2022/03/28 05:26:13;;;;;;;;;;;;;;;8.33;64.61;101962.50;5028212;28;19909;-80
2022/03/28 05:28:38;;;;;;;;;;;;;;;8.36;64.77;101960.84;5029667;28;19929;-81
2022/03/28 05:31:04;;;;;;;;;;;;;;;8.42;64.09;101962.59;5028145;28;20007;-81
2022/03/28 05:33:29;;;;;;;;;;;;;;;8.26;64.31;101956.44;5021377;28;20013;-82
2022/03/28 05:35:55;;;;;;;;;;;;;;;8.44;64.64;101956.59;5029363;28;20704;-75
2022/03/28 05:38:20;;;;;;;;;;;;;;;8.51;64.11;101945.41;5024865;28;19929;-75
2022/03/28 05:40:46;;;;;;;;;;;;;;;8.50;64.52;101946.28;5031810;28;20003;-74
2022/03/28 05:43:11;;;;;;;;;;;;;;;8.42;64.33;101954.81;5034465;28;19925;-80
2022/03/28 05:45:36;;;;;;;;;;;;;;;8.19;65.83;101955.50;5034651;28;19935;-81
2022/03/28 05:48:02;;;;;;;;;;;;;;;8.46;64.46;101943.66;5028358;28;19975;-80
2022/03/28 05:50:27;;;;;;;;;;;;;;;8.34;65.12;101949.63;5030083;28;19921;-81
2022/03/28 05:52:54;;;;;;;;;;;;;;;8.22;65.69;101952.06;5029460;28;19994;-80
2022/03/28 05:55:20;;;;;;;;;;;;;;;8.16;65.11;101954.63;5035592;28;20564;-80
2022/03/28 05:57:45;;;;;;;;;;;;;;;8.21;65.04;101953.78;5010547;28;19951;-81
2022/03/28 06:00:13;;;;;;;;;;;;;;;8.35;64.61;101947.91;5006302;28;20016;-81
2022/03/28 06:02:38;;;;;;;;;;;;;;;7.97;66.04;101950.16;5017830;28;19960;-80
2022/03/28 06:05:05;;;;;;;;;;;;;;;8.25;65.45;101947.78;5029656;28;19953;-81
2022/03/28 06:07:31;;;;;;;;;;;;;;;8.26;65.31;101938.31;5029523;28;20747;-81
2022/03/28 06:09:56;;;;;;;;;;;;;;;8.47;64.93;101940.22;5023801;28;19917;-81
2022/03/28 06:12:22;;;;;;;;;;;;;;;8.48;65.04;101931.56;5028149;28;19956;-80
2022/03/28 06:14:47;;;;;;;;;;;;;;;8.37;65.84;101936.69;5032986;28;21077;-81
2022/03/28 06:17:19;;;;;;;;;;;;;;;8.22;66.30;101944.31;5013361;28;19925;-81
2022/03/28 06:19:44;;;;;;;;;;;;;;;8.37;65.96;101944.47;5030881;28;20454;-80
2022/03/28 06:22:10;;;;;;;;;;;;;;;8.38;66.01;101940.16;5030039;28;19928;-80
2022/03/28 06:24:35;;;;;;;;;;;;;;;8.40;65.98;101941.00;5029003;28;19932;-80
2022/03/28 06:27:00;;;;;;;;;;;;;;;8.45;66.12;101939.31;5027319;28;19921;-75
2022/03/28 06:29:26;;;;;;;;;;;;;;;8.49;66.26;101933.31;5027701;28;20689;-80
2022/03/28 06:31:51;;;;;;;;;;;;;;;8.41;66.42;101937.59;5027755;28;19932;-80
2022/03/28 06:34:16;;;;;;;;;;;;;;;8.32;66.72;101943.53;5010240;28;20005;-80
2022/03/28 06:36:45;;;;;;;;;;;;;;;8.61;66.86;101943.75;5009804;28;20008;-77
2022/03/28 06:39:11;;;;;;;;;;;;;;;8.50;67.29;101945.41;5023272;28;19925;-77
2022/03/28 06:41:37;;;;;;;;;;;;;;;8.54;67.37;101937.66;5015898;28;19970;-81
2022/03/28 06:44:05;;;;;;;;;;;;;;;8.49;68.04;101941.94;5036529;28;20294;-76
2022/03/28 06:46:30;;;;;;;;;;;;;;;8.67;67.85;101942.06;5005229;28;19925;-77
2022/03/28 06:48:57;;;;;;;;;;;;;;;8.70;67.56;101938.63;5027057;28;19922;-77
2022/03/28 06:51:22;;;;;;;;;;;;;;;8.66;67.73;101940.31;5021264;28;21851;-77
2022/03/28 06:53:48;;;;;;;;;;;;;;;8.71;67.93;101941.19;5005458;28;19939;-77
2022/03/28 06:56:14;;;;;;;;;;;;;;;8.65;68.59;101932.56;5019551;28;20009;-77
2022/03/28 06:58:39;;;;;;;;;;;;;;;8.79;68.77;101931.75;5021558;28;19931;-75
2022/03/28 07:01:04;;;;;;;;;;;;;;;8.81;68.47;101929.16;5023295;28;19921;-82
2022/03/28 07:03:30;;;;;;;;;;;;;;;8.97;68.44;101923.19;5021637;28;20039;-81
2022/03/28 07:05:56;;;;;;;;;;;;;;;8.97;68.45;101923.19;5035328;28;19921;-82
2022/03/28 07:08:22;;;;;;;;;;;;;;;9.07;68.46;101919.75;5031401;28;19932;-82
2022/03/28 07:10:48;;;;;;;;;;;;;;;9.09;68.54;101912.88;5025121;28;20345;-81
2022/03/28 07:13:13;;;;;;;;;;;;;;;9.14;68.51;101918.06;5024774;28;19933;-80
2022/03/28 07:15:38;;;;;;;;;;;;;;;9.18;68.72;101912.91;5019478;28;20503;-77
2022/03/28 07:18:07;;;;;;;;;;;;;;;9.19;68.80;101909.44;5027282;28;19921;-80
2022/03/28 07:20:32;;;;;;;;;;;;;;;9.40;67.95;101902.56;5027756;28;19975;-80
2022/03/28 07:22:58;;;;;;;;;;;;;;;9.39;68.22;101899.13;5026905;28;19961;-80
2022/03/28 07:25:24;;;;;;;;;;;;;;;9.44;67.85;101897.41;5012659;28;20364;-76
2022/03/28 07:27:50;;;;;;;;;;;;;;;9.44;68.28;101904.31;5027848;28;20011;-77
2022/03/28 07:30:17;;;;;;;;;;;;;;;9.44;68.01;101904.31;5025797;28;19948;-77
2022/03/28 07:32:42;;;;;;;;;;;;;;;9.48;68.19;101903.47;5027047;28;20024;-77
2022/03/28 07:35:08;;;;;;;;;;;;;;;9.61;67.88;101898.28;5030558;28;20007;-81
2022/03/28 07:37:34;;;;;;;;;;;;;;;9.66;67.80;101901.72;5028166;28;19972;-77
2022/03/28 07:40:00;;;;;;;;;;;;;;;9.57;68.82;101904.31;5030135;28;19925;-77
2022/03/28 07:42:25;;;;;;;;;;;;;;;9.41;69.29;101907.78;5027675;28;19927;-80
2022/03/28 07:44:55;;;;;;;;;;;;;;;9.50;69.29;101901.72;5040864;28;19963;-77
2022/03/28 07:47:21;;;;;;;;;;;;;;;9.52;69.42;101902.59;5025808;28;19921;-76
2022/03/28 07:49:46;;;;;;;;;;;;;;;9.62;68.53;101899.16;5030520;28;19967;-77
2022/03/28 07:52:12;;;;;;;;;;;;;;;9.65;68.78;101891.38;5011808;28;20306;-76
2022/03/28 07:54:37;;;;;;;;;;;;;;;9.62;68.90;101893.97;5025466;28;19966;-77
2022/03/28 07:57:03;;;;;;;;;;;;;;;9.57;69.48;101885.31;5026267;28;19955;-77
2022/03/28 07:59:29;;;;;;;;;;;;;;;9.64;69.29;101893.09;5025046;28;20032;-80
2022/03/28 08:01:55;;;;;;;;;;;;;;;9.75;69.24;101885.34;5031156;28;19913;-77
2022/03/28 08:04:20;;;;;;;;;;;;;;;9.92;68.45;101882.75;5028395;28;19929;-81
2022/03/28 08:06:46;;;;;;;;;;;;;;;9.87;68.59;101880.97;5029370;28;19921;-77
2022/03/28 08:09:11;;;;;;;;;;;;;;;9.92;68.37;101878.44;5019703;28;19929;-80
2022/03/28 08:11:36;;;;;;;;;;;;;;;9.93;68.54;101881.91;5016727;28;20008;-80
2022/03/28 08:14:03;;;;;;;;;;;;;;;9.88;69.29;101874.94;5025939;28;19969;-80
2022/03/28 08:16:29;;;;;;;;;;;;;;;10.01;68.85;101873.25;5007867;28;20369;-80
2022/03/28 08:18:54;;;;;;;;;;;;;;;9.92;68.52;101872.38;5026263;28;19972;-80
2022/03/28 08:21:20;;;;;;;;;;;;;;;9.97;68.89;101865.44;5030650;28;19921;-77
2022/03/28 08:23:45;;;;;;;;;;;;;;;9.93;69.33;101861.13;5027338;28;19959;-80
2022/03/28 08:26:10;;;;;;;;;;;;;;;10.01;68.73;101860.25;5027297;28;19960;-80
2022/03/28 08:28:36;;;;;;;;;;;;;;;9.99;68.69;101851.59;5031577;28;19921;-80
2022/03/28 08:31:01;;;;;;;;;;;;;;;10.04;68.92;101857.66;5022849;28;20629;-75
2022/03/28 08:33:26;;;;;;;;;;;;;;;10.10;68.94;101854.19;5026944;28;19921;-80
2022/03/28 08:35:52;;;;;;;;;;;;;;;10.12;68.66;101853.31;5034034;28;19920;-80
2022/03/28 08:38:18;;;;;;;;;;;;;;;10.22;68.55;101843.78;5030676;28;19917;-80
2022/03/28 08:40:44;;;;;;;;;;;;;;;10.08;69.22;101841.19;5019005;28;20057;-80
2022/03/28 08:43:10;;;;;;;;;;;;;;;10.17;68.83;101838.56;5013819;28;19917;-81
2022/03/28 08:45:38;;;;;;;;;;;;;;;10.22;68.27;101842.06;5029192;28;19921;-75
2022/03/28 08:48:05;;;;;;;;;;;;;;;10.29;67.23;101845.47;5033705;28;20275;-80
2022/03/28 08:50:31;;;;;;;;;;;;;;;10.35;67.15;101841.13;5025060;28;20386;-80
2022/03/28 08:52:57;;;;;;;;;;;;;;;10.40;67.32;101843.72;5024555;28;19947;-75
2022/03/28 08:55:24;;;;;;;;;;;;;;;10.34;67.64;101843.75;5029497;28;19929;-75
2022/03/28 08:57:49;;;;;;;;;;;;;;;10.42;67.27;101845.44;5025932;28;19967;-76
2022/03/28 09:00:15;;;;;;;;;;;;;;;10.52;66.43;101827.22;5020601;28;19956;-77
2022/03/28 09:02:42;;;;;;;;;;;;;;;10.60;66.04;101825.47;5015559;28;19921;-76
2022/03/28 09:05:11;;;;;;;;;;;;;;;10.62;65.77;101824.56;5036327;28;19917;-81
2022/03/28 09:07:36;;;;;;;;;;;;;;;10.73;64.86;101824.53;5021600;28;19991;-80
2022/03/28 09:10:05;;;;;;;;;;;;;;;10.78;65.19;101821.03;5027873;28;19920;-80
2022/03/28 09:12:30;;;;;;;;;;;;;;;10.77;65.42;101818.44;5026805;28;19933;-77
2022/03/28 09:14:57;;;;;;;;;;;;;;;10.84;64.96;101820.16;5022174;28;19983;-80
2022/03/28 09:17:23;;;;;;;;;;;;;;;10.82;65.33;101820.13;5011279;28;20326;-80
2022/03/28 09:19:53;;;;;;;;;;;;;;;10.91;64.52;101817.50;5023487;28;19921;-79
2022/03/28 09:22:20;;;;;;;;;;;;;;;10.97;64.38;101812.25;5020646;28;19925;-80
2022/03/28 09:24:46;;;;;;;;;;;;;;;11.04;63.76;101807.88;5026831;28;19952;-80
2022/03/28 09:27:16;;;;;;;;;;;;;;;11.06;63.48;101807.91;5024875;28;19960;-80
2022/03/28 09:30:11;;;;;;;;;;;;;;;11.11;63.86;101806.13;5024959;28;19932;-80
2022/03/28 09:32:38;;;;;;;;;;;;;;;11.22;63.01;101799.97;5011276;28;19920;-75
2022/03/28 09:35:04;;;;;;;;;;;;;;;11.27;62.37;101795.59;5026208;28;19968;-81
2022/03/28 09:37:30;;;;;;;;;;;;;;;11.31;62.56;101801.66;5026530;28;19968;-81
2022/03/28 09:39:56;;;;;;;;;;;;;;;11.27;62.95;101798.19;5007451;28;20382;-81
2022/03/28 09:42:21;;;;;;;;;;;;;;;11.31;62.47;101783.47;5029154;28;19925;-81
2022/03/28 09:44:49;;;;;;;;;;;;;;;11.44;62.31;101778.13;5027603;28;19921;-75
2022/03/28 09:47:19;;;;;;;;;;;;;;;11.40;62.49;101775.59;5028171;28;19917;-80
2022/03/28 09:49:46;;;;;;;;;;;;;;;11.46;62.02;101775.53;5009493;28;19921;-80
2022/03/28 09:52:13;;;;;;;;;;;;;;;11.36;63.66;101766.94;5024056;28;19928;-75
2022/03/28 09:54:43;;;;;;;;;;;;;;;11.35;63.88;101765.22;5019143;28;19925;-76
2022/03/28 09:57:09;;;;;;;;;;;;;;;11.34;64.64;101760.91;5021872;28;19940;-80
2022/03/28 09:59:39;;;;;;;;;;;;;;;11.40;64.43;101757.38;5025238;28;19967;-80
2022/03/28 10:02:18;;;;;;;;;;;;;;;11.40;64.09;101760.84;5017323;28;19964;-81
2022/03/28 10:04:48;;;;;;;;;;;;;;;11.46;63.96;101758.19;5024548;28;20418;-81
2022/03/28 10:07:13;;;;;;;;;;;;;;;11.46;64.40;101754.72;5021065;28;19925;-80
2022/03/28 10:09:39;;;;;;;;;;;;;;;11.42;64.85;101756.47;5022389;28;19990;-80
2022/03/28 10:12:05;;;;;;;;;;;;;;;11.51;64.18;101752.94;5024658;28;20351;-80
2022/03/28 10:14:31;;;;;;;;;;;;;;;11.59;63.21;101750.28;5024975;28;19929;-79
2022/03/28 10:16:56;;;;;;;;;;;;;;;11.60;63.32;101746.78;5031842;28;19917;-77
2022/03/28 10:19:23;;;;;;;;;;;;;;;11.53;64.64;101743.38;5030746;28;20015;-77
2022/03/28 10:21:48;;;;;;;;;;;;;;;11.49;64.26;101739.06;5031310;28;19925;-77
2022/03/28 10:24:15;;;;;;;;;;;;;;;11.50;64.06;101733.84;5029045;28;20401;-80
2022/03/28 10:26:44;;;;;;;;;;;;;;;11.58;64.00;101733.78;5032309;28;19925;-80
2022/03/28 10:29:21;;;;;;;;;;;;;;;11.67;63.58;101727.63;5031820;28;20412;-80
2022/03/28 10:31:56;;;;;;;;;;;;;;;11.78;62.52;101731.84;5019840;28;19922;-80
2022/03/28 10:34:40;;;;;;;;;;;;;;;11.74;62.71;101729.31;5029209;28;19929;-81
2022/03/28 10:37:25;;;;;;;;;;;;;;;11.66;63.45;101718.09;5028850;28;20170;-77
2022/03/28 10:39:51;;;;;;;;;;;;;;;11.64;63.29;101712.91;5011869;28;19957;-77
2022/03/28 10:42:23;;;;;;;;;;;;;;;11.62;64.11;101712.06;5029034;28;19948;-81
2022/03/28 10:45:03;;;;;;;;;;;;;;;11.63;64.49;101705.97;5028760;28;19928;-81
2022/03/28 10:47:47;;;;;;;;;;;;;;;11.72;62.86;101699.81;5027889;28;19924;-80
2022/03/28 10:50:16;;;;;;;;;;;;;;;11.81;62.04;101697.09;5012958;28;19913;-81
2022/03/28 10:53:08;;;;;;;;;;;;;;;11.76;62.96;101691.97;5026273;28;20310;-81
2022/03/28 10:55:38;;;;;;;;;;;;;;;11.72;62.49;101692.84;5024838;28;19932;-80
2022/03/28 10:58:29;;;;;;;;;;;;;;;11.70;62.95;101685.94;5027674;28;20374;-80
2022/03/28 11:01:12;;;;;;;;;;;;;;;11.72;62.33;101682.44;5017808;28;20386;-80
2022/03/28 11:03:40;;;;;;;;;;;;;;;11.98;61.86;101687.34;5026286;28;19921;-80
2022/03/28 11:06:06;;;;;;;;;;;;;;;11.97;61.27;101678.69;5023956;28;19921;-80
2022/03/28 11:08:32;;;;;;;;;;;;;;;11.98;61.58;101677.78;5024470;28;19917;-80
2022/03/28 11:11:16;;;;;;;;;;;;;;;12.01;61.20;101675.16;5028942;28;19921;-76
2022/03/28 11:13:42;;;;;;;;;;;;;;;12.00;61.46;101663.03;5013287;28;19939;-77
2022/03/28 11:16:19;;;;;;;;;;;;;;;11.91;60.16;101664.88;5033441;28;19929;-77
2022/03/28 11:18:44;;;;;;;;;;;;;;;12.01;61.39;101662.13;5030082;28;19921;-80
2022/03/28 11:21:11;;;;;;;;;;;;;;;12.11;61.32;101660.28;5011668;28;20612;-81
2022/03/28 11:23:42;;;;;;;;;;;;;;;11.98;61.34;101654.34;5023586;28;20390;-80
2022/03/28 11:26:08;;;;;;;;;;;;;;;11.94;61.74;101651.81;5043878;28;19924;-81
2022/03/28 11:28:34;;;;;;;;;;;;;;;11.96;59.58;101647.44;5031251;28;19920;-75
2022/03/28 11:30:59;;;;;;;;;;;;;;;12.00;61.89;101637.00;5029951;28;19928;-81
2022/03/28 11:33:32;;;;;;;;;;;;;;;11.92;62.94;101638.81;5017553;28;19933;-81
2022/03/28 11:35:57;;;;;;;;;;;;;;;11.88;62.59;101624.13;5027834;28;19953;-75
2022/03/28 11:38:26;;;;;;;;;;;;;;;11.87;62.53;101625.00;5026355;28;19964;-77
2022/03/28 11:40:53;;;;;;;;;;;;;;;11.86;62.63;101625.03;5025614;28;19921;-77
2022/03/28 11:43:25;;;;;;;;;;;;;;;11.95;62.24;101622.28;5026906;28;19980;-77
2022/03/28 11:45:51;;;;;;;;;;;;;;;12.12;59.73;101612.53;5028082;28;20441;-77
2022/03/28 11:48:18;;;;;;;;;;;;;;;12.06;59.94;101615.22;5027582;28;19968;-76
2022/03/28 11:50:43;;;;;;;;;;;;;;;12.11;60.28;101598.63;5026888;28;20325;-80
2022/03/28 11:53:11;;;;;;;;;;;;;;;12.13;60.35;101606.41;5031756;28;19921;-75
2022/03/28 11:55:37;;;;;;;;;;;;;;;12.16;60.14;101592.47;5027767;28;20314;-80
2022/03/28 11:58:19;;;;;;;;;;;;;;;12.00;61.07;101591.84;5032372;28;19929;-80
2022/03/28 12:00:45;;;;;;;;;;;;;;;11.96;61.18;101591.03;5025584;28;19953;-75
2022/03/28 12:03:12;;;;;;;;;;;;;;;11.94;61.19;101587.59;5026165;28;19929;-75
2022/03/28 12:05:42;;;;;;;;;;;;;;;11.96;61.20;101579.75;5027985;28;19913;-76
2022/03/28 12:08:09;;;;;;;;;;;;;;;12.11;60.31;101582.16;5027995;28;19920;-75
2022/03/28 12:10:36;;;;;;;;;;;;;;;12.00;61.37;101578.84;5025029;28;19933;-75
2022/03/28 12:13:06;;;;;;;;;;;;;;;12.02;61.31;101567.50;5023880;28;19929;-75
2022/03/28 12:15:39;;;;;;;;;;;;;;;11.99;60.86;101564.94;5022301;28;20582;-80
2022/03/28 12:18:08;;;;;;;;;;;;;;;12.21;59.99;101562.03;5020820;28;19921;-75
2022/03/28 12:20:44;;;;;;;;;;;;;;;12.30;57.28;101554.94;5020668;28;19971;-80
2022/03/28 12:23:10;;;;;;;;;;;;;;;12.42;57.39;101552.13;5026662;28;19921;-81
2022/03/28 12:25:39;;;;;;;;;;;;;;;12.61;55.40;101544.91;5025559;28;19971;-81
2022/03/28 12:28:06;;;;;;;;;;;;;;;12.74;55.16;101538.59;5026430;28;19951;-80
2022/03/28 12:30:31;;;;;;;;;;;;;;;12.74;54.34;101532.53;5023999;28;20214;-80
2022/03/28 12:32:57;;;;;;;;;;;;;;;12.64;55.08;101527.47;5026032;28;19921;-76
2022/03/28 12:35:24;;;;;;;;;;;;;;;12.54;56.13;101536.31;5026464;28;20504;-77
2022/03/28 12:37:57;;;;;;;;;;;;;;;12.28;55.93;101525.44;5027670;28;19917;-80
2022/03/28 12:40:26;;;;;;;;;;;;;;;12.30;57.59;101522.81;5027662;28;19928;-75